createdAt,value
2022-12-26T00:06:30.617Z,99935.34
2022-12-26T00:13:48.832Z,99906.22
2022-12-26T00:21:09.519Z,99910.91
2022-12-26T00:28:27.689Z,99882.72
2022-12-26T00:35:46.096Z,99887.44
2022-12-26T00:43:05.745Z,99881.25
2022-12-26T00:50:25.446Z,99881.09
2022-12-26T00:57:45.501Z,99875.34
2022-12-26T01:05:05.721Z,99895.25
2022-12-26T01:12:24.065Z,99892.09
2022-12-26T01:19:42.409Z,99887.69
2022-12-26T01:27:02.460Z,99878.09
2022-12-26T01:34:20.653Z,99851.69
2022-12-26T01:41:38.900Z,99847.28
2022-12-26T01:49:01.998Z,99855.13
2022-12-26T01:56:22.540Z,99878.91
2022-12-26T02:04:00.638Z,99851.56
2022-12-26T02:11:24.348Z,99859.66
2022-12-26T02:18:43.337Z,99851.03
2022-12-26T02:26:32.323Z,99847.72
2022-12-26T02:34:02.843Z,99847.56
2022-12-26T02:41:27.980Z,99825.00
2022-12-26T02:48:51.549Z,99798.84
2022-12-26T02:56:29.507Z,99756.03
2022-12-26T03:04:06.315Z,99823.59
2022-12-26T03:11:45.292Z,99829.19
2022-12-26T03:19:05.403Z,99808.31
2022-12-26T03:26:42.217Z,99774.63
2022-12-26T03:34:19.212Z,99789.22
2022-12-26T03:42:03.138Z,99763.47
2022-12-26T03:49:41.544Z,99768.44
2022-12-26T03:57:24.025Z,99774.59
2022-12-26T04:05:03.178Z,99766.75
2022-12-26T04:12:42.496Z,99765.94
2022-12-26T04:20:09.440Z,99801.75
2022-12-26T04:27:47.964Z,99781.72
2022-12-26T04:35:28.173Z,99760.06
2022-12-26T04:43:46.564Z,99769.13
2022-12-26T04:50:52.576Z,99758.31
2022-12-26T04:58:12.156Z,99767.72
2022-12-26T05:05:48.223Z,99755.84
2022-12-26T05:13:06.440Z,99756.97
2022-12-26T05:20:46.358Z,99743.56
2022-12-26T05:28:22.723Z,99731.00
2022-12-26T05:35:43.957Z,99742.91
2022-12-26T05:43:02.166Z,99739.97
2022-12-26T05:50:20.631Z,99751.13
2022-12-26T05:57:40.258Z,99759.34
2022-12-26T06:04:58.953Z,99758.81
2022-12-26T06:12:17.322Z,99750.97
2022-12-26T06:19:41.359Z,99760.03
2022-12-26T06:27:03.407Z,99772.38
2022-12-26T06:34:21.701Z,99755.13
2022-12-26T06:41:41.494Z,99754.44
2022-12-26T06:48:59.684Z,99773.59
2022-12-26T06:56:19.643Z,99764.56
2022-12-26T07:03:46.588Z,99759.84
2022-12-26T07:11:16.862Z,99765.25
2022-12-26T07:18:35.575Z,99767.22
2022-12-26T07:25:55.330Z,99773.13
2022-12-26T07:33:13.837Z,99765.56
2022-12-26T07:40:32.588Z,99785.94
2022-12-26T07:47:55.716Z,99776.91
2022-12-26T07:55:13.909Z,99786.09
2022-12-26T08:02:32.760Z,99778.56
2022-12-26T08:09:52.960Z,99780.22
2022-12-26T08:17:11.281Z,99778.09
2022-12-26T08:24:29.560Z,99792.72
2022-12-26T08:31:49.320Z,99797.47
2022-12-26T08:39:07.517Z,99794.31
2022-12-26T08:46:26.146Z,99786.16
2022-12-26T08:53:47.142Z,99801.09
2022-12-26T09:01:10.417Z,99795.50
2022-12-26T09:08:31.013Z,99804.03
2022-12-26T09:15:50.705Z,99809.66
2022-12-26T09:23:10.952Z,99814.94
2022-12-26T09:30:29.917Z,99821.34
2022-12-26T09:37:49.782Z,99822.00
2022-12-26T09:45:14.794Z,99805.75
2022-12-26T09:52:40.617Z,99805.06
2022-12-26T10:00:04.449Z,99811.69
2022-12-26T10:07:38.069Z,99796.78
2022-12-26T10:14:58.496Z,99791.66
2022-12-26T10:22:45.420Z,99778.53
2022-12-26T10:30:06.378Z,99767.38
2022-12-26T10:37:28.562Z,99782.41
2022-12-26T10:44:48.433Z,99788.53
2022-12-26T10:52:06.762Z,99779.47
2022-12-26T10:59:31.173Z,99776.66
2022-12-26T11:06:53.552Z,99775.78
2022-12-26T11:14:33.489Z,99778.22
2022-12-26T11:21:53.813Z,99759.75
2022-12-26T11:29:15.086Z,99748.06
2022-12-26T11:36:34.460Z,99763.94
2022-12-26T11:43:54.541Z,99760.25
2022-12-26T11:51:12.792Z,99733.00
2022-12-26T11:58:32.237Z,99713.97
2022-12-26T12:05:56.926Z,99720.94
2022-12-26T12:13:24.795Z,99725.66
2022-12-26T12:20:55.170Z,99725.28
2022-12-26T12:28:28.575Z,99723.28
2022-12-26T12:36:02.986Z,99731.53
2022-12-26T12:43:26.623Z,99739.56
2022-12-26T12:50:56.899Z,99749.94
2022-12-26T12:58:26.229Z,99719.78
2022-12-26T13:05:52.569Z,99711.56
2022-12-26T13:13:15.359Z,99732.00
2022-12-26T13:20:40.472Z,99731.44
2022-12-26T13:28:09.829Z,99733.72
2022-12-26T13:36:02.263Z,99741.72
2022-12-26T13:43:39.925Z,99756.56
2022-12-26T13:51:02.552Z,99737.59
2022-12-26T13:58:47.861Z,99753.22
2022-12-26T14:06:32.651Z,99738.44
2022-12-26T14:14:01.514Z,99726.50
2022-12-26T14:21:49.449Z,99734.47
2022-12-26T14:29:15.084Z,99736.16
2022-12-26T14:36:42.271Z,99720.56
2022-12-26T14:44:14.651Z,99731.00
2022-12-26T14:51:37.638Z,99749.38
2022-12-26T14:59:28.144Z,99744.16
2022-12-26T15:07:21.238Z,99737.75
2022-12-26T15:15:01.556Z,99733.47
2022-12-26T15:22:36.002Z,99746.69
2022-12-26T15:30:12.668Z,99745.19
2022-12-26T15:37:58.221Z,99737.97
2022-12-26T15:45:39.611Z,99751.16
2022-12-26T15:53:10.012Z,99757.06
2022-12-26T16:00:30.308Z,99749.41
2022-12-26T16:07:54.976Z,99741.34
2022-12-26T16:15:18.879Z,99761.41
2022-12-26T16:22:47.358Z,99787.78
2022-12-26T16:30:14.232Z,99792.59
2022-12-26T16:37:33.207Z,99834.50
2022-12-26T16:44:51.438Z,99836.47
2022-12-26T16:52:32.456Z,99817.84
2022-12-26T16:59:53.195Z,99826.84
2022-12-26T17:07:17.945Z,99829.63
2022-12-26T17:14:39.336Z,99845.84
2022-12-26T17:22:21.762Z,99839.31
2022-12-26T17:29:49.480Z,99831.69
2022-12-26T17:37:19.059Z,99844.09
2022-12-26T17:44:41.639Z,99845.50
2022-12-26T17:52:01.876Z,99838.44
2022-12-26T17:59:21.489Z,99847.94
2022-12-26T18:06:42.538Z,99861.06
2022-12-26T18:14:01.266Z,99851.06
2022-12-26T18:21:19.686Z,99856.97
2022-12-26T18:28:39.906Z,99851.97
2022-12-26T18:36:00.811Z,99870.88
2022-12-26T18:43:22.796Z,99884.25
2022-12-26T18:50:43.450Z,99885.13
2022-12-26T18:58:01.729Z,99872.63
2022-12-26T19:05:26.356Z,99862.47
2022-12-26T19:12:46.694Z,99866.25
2022-12-26T19:20:07.013Z,99863.69
2022-12-26T19:27:25.490Z,99850.75
2022-12-26T19:34:45.762Z,99853.25
2022-12-26T19:42:04.043Z,99846.97
2022-12-26T19:49:22.980Z,99843.94
2022-12-26T19:56:42.881Z,99850.31
2022-12-26T20:04:03.813Z,99865.00
2022-12-26T20:11:24.753Z,99858.66
2022-12-26T20:18:45.172Z,99834.88
2022-12-26T20:26:06.785Z,99835.22
2022-12-26T20:33:25.145Z,99851.44
2022-12-26T20:40:49.889Z,99861.22
2022-12-26T20:48:09.110Z,99863.72
2022-12-26T20:55:31.535Z,99838.56
2022-12-26T21:02:51.433Z,99823.63
2022-12-26T21:10:11.615Z,99835.38
2022-12-26T21:17:30.190Z,99832.59
2022-12-26T21:24:50.033Z,99829.94
2022-12-26T21:32:08.652Z,99851.88
2022-12-26T21:39:26.943Z,99846.25
2022-12-26T21:46:46.923Z,99833.44
2022-12-26T21:54:25.230Z,99843.34
2022-12-26T22:01:45.597Z,99831.22
2022-12-26T22:09:09.024Z,99819.50
2022-12-26T22:16:27.339Z,99810.06
2022-12-26T22:23:46.115Z,99822.69
2022-12-26T22:31:08.899Z,99839.41
2022-12-26T22:38:31.588Z,99839.09
2022-12-26T22:45:50.063Z,99827.09
2022-12-26T22:53:11.453Z,99841.03
2022-12-26T23:00:29.903Z,99845.63
2022-12-26T23:07:49.054Z,99862.84
2022-12-26T23:15:13.400Z,99898.41
2022-12-26T23:22:32.252Z,99937.84
2022-12-26T23:30:08.606Z,99923.59
2022-12-26T23:37:28.763Z,99920.09
2022-12-26T23:44:46.985Z,99924.16
2022-12-26T23:52:05.576Z,99883.47
2022-12-26T23:59:25.952Z,99955.59
